createdAt,value
2022-10-15T00:01:34.323Z,15.80
2022-10-15T00:06:26.921Z,15.82
2022-10-15T00:08:53.295Z,15.80
2022-10-15T00:11:19.617Z,15.73
2022-10-15T00:13:45.958Z,15.67
2022-10-15T00:16:12.306Z,15.69
2022-10-15T00:18:38.645Z,15.63
2022-10-15T00:21:05.001Z,15.70
2022-10-15T00:23:31.323Z,15.54
2022-10-15T00:25:57.646Z,15.56
2022-10-15T00:28:24.070Z,15.55
2022-10-15T00:30:50.324Z,15.41
2022-10-15T00:33:16.643Z,15.36
2022-10-15T00:35:42.966Z,15.43
2022-10-15T00:38:09.322Z,15.47
2022-10-15T00:40:35.652Z,15.54
2022-10-15T00:43:01.993Z,15.51
2022-10-15T00:45:28.351Z,15.51
2022-10-15T00:47:54.663Z,15.55
2022-10-15T00:50:20.985Z,15.58
2022-10-15T00:52:47.327Z,15.61
2022-10-15T00:55:13.681Z,15.60
2022-10-15T00:57:40.018Z,15.66
2022-10-15T01:00:06.335Z,15.72
2022-10-15T01:02:32.652Z,15.70
2022-10-15T01:04:58.982Z,15.65
2022-10-15T01:07:25.300Z,15.62
2022-10-15T01:09:51.642Z,15.64
2022-10-15T01:12:17.981Z,15.60
2022-10-15T01:14:44.312Z,15.53
2022-10-15T01:17:10.649Z,15.52
2022-10-15T01:19:37.029Z,15.46
2022-10-15T01:22:03.346Z,15.50
2022-10-15T01:24:29.683Z,15.46
2022-10-15T01:26:56.043Z,15.47
2022-10-15T01:29:22.391Z,15.53
2022-10-15T01:31:48.726Z,15.60
2022-10-15T01:36:41.402Z,15.60
2022-10-15T01:39:07.724Z,15.53
2022-10-15T01:41:34.115Z,15.51
2022-10-15T01:44:00.457Z,15.57
2022-10-15T01:46:26.817Z,15.50
2022-10-15T01:48:53.162Z,15.51
2022-10-15T01:51:19.505Z,15.60
2022-10-15T01:53:46.011Z,15.51
2022-10-15T01:56:12.325Z,15.48
2022-10-15T01:58:38.651Z,15.44
2022-10-15T02:01:04.994Z,15.43
2022-10-15T02:03:31.320Z,15.46
2022-10-15T02:05:57.637Z,15.54
2022-10-15T02:08:23.968Z,15.59
2022-10-15T02:10:50.347Z,15.55
2022-10-15T02:13:16.666Z,15.57
2022-10-15T02:15:42.983Z,15.61
2022-10-15T02:18:09.354Z,15.58
2022-10-15T02:20:35.699Z,15.67
2022-10-15T02:23:02.013Z,15.60
2022-10-15T02:25:28.356Z,15.54
2022-10-15T02:27:54.698Z,15.51
2022-10-15T02:30:21.045Z,15.55
2022-10-15T02:32:47.380Z,15.52
2022-10-15T02:35:13.720Z,15.55
2022-10-15T02:37:40.061Z,15.57
2022-10-15T02:40:06.397Z,15.55
2022-10-15T02:42:32.719Z,15.60
2022-10-15T02:44:59.039Z,15.65
2022-10-15T02:49:51.719Z,15.69
2022-10-15T02:52:18.061Z,15.75
2022-10-15T02:54:44.418Z,15.70
2022-10-15T02:57:10.736Z,15.68
2022-10-15T02:59:37.053Z,15.64
2022-10-15T03:02:03.400Z,15.61
2022-10-15T03:04:29.740Z,15.54
2022-10-15T03:06:56.057Z,15.60
2022-10-15T03:09:22.395Z,15.61
2022-10-15T03:11:48.744Z,15.62
2022-10-15T03:14:15.052Z,15.59
2022-10-15T03:16:41.377Z,15.65
2022-10-15T03:19:07.721Z,15.60
2022-10-15T03:21:34.063Z,15.60
2022-10-15T03:24:00.393Z,15.51
2022-10-15T03:26:26.744Z,15.55
2022-10-15T03:28:53.109Z,15.58
2022-10-15T03:31:19.391Z,15.59
2022-10-15T03:33:45.701Z,15.66
2022-10-15T03:36:12.048Z,15.61
2022-10-15T03:38:38.384Z,15.57
2022-10-15T03:41:04.707Z,15.59
2022-10-15T03:43:31.024Z,15.57
2022-10-15T03:45:57.427Z,15.63
2022-10-15T03:48:23.761Z,15.60
2022-10-15T03:50:50.103Z,15.75
2022-10-15T03:53:16.418Z,15.67
2022-10-15T03:55:42.763Z,15.70
2022-10-15T03:58:09.111Z,15.68
2022-10-15T04:00:35.449Z,15.63
2022-10-15T04:03:01.767Z,15.59
2022-10-15T04:05:28.089Z,15.55
2022-10-15T04:07:54.467Z,15.52
2022-10-15T04:10:20.814Z,15.54
2022-10-15T04:12:47.157Z,15.62
2022-10-15T04:15:13.504Z,15.67
2022-10-15T04:17:39.895Z,15.75
2022-10-15T04:20:06.163Z,15.75
2022-10-15T04:22:32.515Z,15.76
2022-10-15T04:24:58.842Z,15.74
2022-10-15T04:27:25.187Z,15.71
2022-10-15T04:29:51.509Z,15.68
2022-10-15T04:32:17.850Z,15.68
2022-10-15T04:34:44.193Z,15.70
2022-10-15T04:37:10.509Z,15.66
2022-10-15T04:39:36.854Z,15.63
2022-10-15T04:42:03.189Z,15.58
2022-10-15T04:44:29.573Z,15.65
2022-10-15T04:46:55.914Z,15.65
2022-10-15T04:49:22.233Z,15.70
2022-10-15T04:51:48.556Z,15.77
2022-10-15T04:54:14.966Z,15.74
2022-10-15T04:56:41.234Z,15.80
2022-10-15T04:59:07.585Z,15.83
2022-10-15T05:01:33.904Z,15.85
2022-10-15T05:04:00.242Z,15.79
2022-10-15T05:06:26.556Z,15.80
2022-10-15T05:08:52.881Z,15.80
2022-10-15T05:11:19.218Z,15.87
2022-10-15T05:13:45.542Z,15.97
2022-10-15T05:16:11.878Z,15.98
2022-10-15T05:18:38.215Z,15.85
2022-10-15T05:21:04.534Z,15.82
2022-10-15T05:23:30.863Z,15.73
2022-10-15T05:25:57.185Z,15.64
2022-10-15T05:28:23.561Z,15.65
2022-10-15T05:30:49.832Z,15.81
2022-10-15T05:33:16.177Z,15.77
2022-10-15T05:35:42.490Z,15.72
2022-10-15T05:38:08.814Z,15.82
2022-10-15T05:40:35.158Z,15.89
2022-10-15T05:43:01.517Z,16.00
2022-10-15T05:45:27.823Z,16.24
2022-10-15T05:47:54.228Z,16.15
2022-10-15T05:50:20.600Z,16.23
2022-10-15T05:52:46.890Z,16.21
2022-10-15T05:55:13.215Z,16.27
2022-10-15T05:57:39.597Z,16.22
2022-10-15T06:00:05.959Z,16.21
2022-10-15T06:02:32.399Z,16.30
2022-10-15T06:04:58.652Z,16.25
2022-10-15T06:07:25.368Z,16.11
2022-10-15T06:09:51.385Z,16.10
2022-10-15T06:12:17.709Z,16.14
2022-10-15T06:14:44.047Z,16.34
2022-10-15T06:17:10.465Z,16.46
2022-10-15T06:19:36.803Z,16.48
2022-10-15T06:22:03.146Z,16.61
2022-10-15T06:24:29.468Z,16.83
2022-10-15T06:26:55.797Z,16.81
2022-10-15T06:29:22.134Z,16.84
2022-10-15T06:31:48.476Z,17.05
2022-10-15T06:34:14.800Z,17.04
2022-10-15T06:36:41.179Z,16.87
2022-10-15T06:39:07.493Z,17.05
2022-10-15T06:41:33.838Z,17.16
2022-10-15T06:44:00.243Z,17.28
2022-10-15T06:46:26.539Z,17.28
2022-10-15T06:48:52.859Z,17.15
2022-10-15T06:51:19.212Z,17.32
2022-10-15T06:53:45.525Z,18.16
2022-10-15T06:56:11.866Z,19.05
2022-10-15T06:58:38.182Z,19.83
2022-10-15T07:01:04.517Z,20.18
2022-10-15T07:03:30.887Z,20.20
2022-10-15T07:05:57.229Z,20.53
2022-10-15T07:08:23.546Z,20.77
2022-10-15T07:10:49.880Z,20.74
2022-10-15T07:13:16.222Z,20.84
2022-10-15T07:15:42.580Z,20.69
2022-10-15T07:18:08.921Z,20.27
2022-10-15T07:20:35.263Z,19.75
2022-10-15T07:23:01.626Z,20.35
2022-10-15T07:25:27.949Z,20.47
2022-10-15T07:27:54.292Z,20.68
2022-10-15T07:30:20.635Z,21.26
2022-10-15T07:32:46.973Z,21.33
2022-10-15T07:35:13.314Z,21.41
2022-10-15T07:37:39.629Z,21.85
2022-10-15T07:40:05.971Z,21.78
2022-10-15T07:42:32.332Z,21.92
2022-10-15T07:44:58.651Z,21.73
2022-10-15T07:47:25.363Z,21.25
2022-10-15T07:49:51.363Z,21.40
2022-10-15T07:52:17.697Z,22.29
2022-10-15T07:54:44.045Z,22.10
2022-10-15T07:57:10.383Z,21.11
2022-10-15T07:59:36.767Z,20.52
2022-10-15T08:02:03.113Z,20.30
2022-10-15T08:04:29.449Z,21.19
2022-10-15T08:06:55.792Z,20.36
2022-10-15T08:09:22.127Z,20.35
2022-10-15T08:11:48.464Z,20.32
2022-10-15T08:14:14.841Z,20.88
2022-10-15T08:16:41.164Z,21.85
2022-10-15T08:19:07.511Z,21.82
2022-10-15T08:21:33.882Z,22.04
2022-10-15T08:24:00.204Z,22.22
2022-10-15T08:26:26.549Z,22.54
2022-10-15T08:28:52.931Z,22.98
2022-10-15T08:31:19.194Z,22.92
2022-10-15T08:33:45.545Z,23.04
2022-10-15T08:36:11.920Z,23.69
2022-10-15T08:38:38.235Z,23.51
2022-10-15T08:41:04.577Z,23.55
2022-10-15T08:43:30.918Z,23.25
2022-10-15T08:45:57.261Z,23.42
2022-10-15T08:48:23.600Z,23.88
2022-10-15T08:50:51.770Z,23.48
2022-10-15T08:53:16.333Z,22.47
2022-10-15T08:55:42.676Z,22.33
2022-10-15T08:58:08.988Z,22.36
2022-10-15T09:00:35.317Z,22.67
2022-10-15T09:03:01.709Z,22.82
2022-10-15T09:05:27.976Z,23.08
2022-10-15T09:07:54.683Z,23.27
2022-10-15T09:10:20.721Z,22.32
2022-10-15T09:12:47.040Z,22.80
2022-10-15T09:15:13.400Z,23.31
2022-10-15T09:17:39.741Z,23.41
2022-10-15T09:20:06.061Z,23.86
2022-10-15T09:22:32.384Z,24.07
2022-10-15T09:24:58.732Z,23.56
2022-10-15T09:27:25.464Z,22.78
2022-10-15T09:29:51.446Z,22.51
2022-10-15T09:32:17.765Z,22.62
2022-10-15T09:34:44.107Z,24.14
2022-10-15T09:37:10.524Z,24.38
2022-10-15T09:39:36.872Z,23.30
2022-10-15T09:42:03.215Z,23.79
2022-10-15T09:44:29.620Z,24.77
2022-10-15T09:46:55.950Z,25.24
2022-10-15T09:49:22.289Z,25.29
2022-10-15T09:51:48.641Z,25.62
2022-10-15T09:54:14.988Z,25.28
2022-10-15T09:56:41.301Z,25.10
2022-10-15T09:59:09.593Z,25.00
2022-10-15T10:01:33.947Z,24.87
2022-10-15T10:04:00.278Z,24.92
2022-10-15T10:06:26.619Z,25.10
2022-10-15T10:08:52.965Z,25.28
2022-10-15T10:11:19.328Z,25.38
2022-10-15T10:13:45.646Z,25.99
2022-10-15T10:16:11.982Z,26.36
2022-10-15T10:18:38.365Z,25.95
2022-10-15T10:21:04.697Z,25.94
2022-10-15T10:23:31.041Z,26.02
2022-10-15T10:25:57.393Z,26.49
2022-10-15T10:28:23.790Z,26.89
2022-10-15T10:30:50.082Z,27.10
2022-10-15T10:33:16.407Z,27.58
2022-10-15T10:35:42.738Z,27.67
2022-10-15T10:38:09.059Z,27.69
2022-10-15T10:40:35.376Z,27.97
2022-10-15T10:43:01.728Z,27.27
2022-10-15T10:45:28.043Z,26.86
2022-10-15T10:47:54.374Z,25.88
2022-10-15T10:50:20.691Z,25.30
2022-10-15T10:52:47.041Z,24.95
2022-10-15T10:55:13.354Z,24.20
2022-10-15T10:57:39.703Z,24.51
2022-10-15T11:00:06.037Z,24.50
2022-10-15T11:02:32.400Z,24.19
2022-10-15T11:04:58.737Z,23.50
2022-10-15T11:07:25.523Z,22.93
2022-10-15T11:09:55.249Z,23.04
2022-10-15T11:12:17.762Z,23.83
2022-10-15T11:14:44.110Z,24.63
2022-10-15T11:17:10.441Z,24.45
2022-10-15T11:22:03.114Z,23.82
2022-10-15T11:24:33.553Z,23.24
2022-10-15T11:27:11.773Z,23.10
2022-10-15T11:29:22.194Z,23.12
2022-10-15T11:32:01.757Z,23.20
2022-10-15T11:34:14.871Z,23.19
2022-10-15T11:36:41.195Z,22.90
2022-10-15T11:39:07.541Z,23.09
2022-10-15T11:41:33.861Z,24.00
2022-10-15T11:44:00.179Z,23.93
2022-10-15T11:46:26.540Z,24.36
2022-10-15T11:48:52.879Z,23.80
2022-10-15T11:51:19.212Z,23.33
2022-10-15T11:53:45.672Z,22.72
2022-10-15T11:56:11.999Z,22.82
2022-10-15T11:58:38.319Z,22.96
2022-10-15T12:01:04.670Z,22.52
2022-10-15T12:03:30.992Z,22.14
2022-10-15T12:05:57.358Z,22.37
2022-10-15T12:08:23.689Z,22.16
2022-10-15T12:10:50.019Z,22.38
2022-10-15T12:13:16.343Z,22.05
2022-10-15T12:15:42.681Z,22.01
2022-10-15T12:18:09.014Z,22.23
2022-10-15T12:20:35.340Z,22.45
2022-10-15T12:23:01.699Z,23.01
2022-10-15T12:25:28.026Z,22.87
2022-10-15T12:27:54.362Z,22.43
2022-10-15T12:30:20.678Z,22.23
2022-10-15T12:32:47.001Z,22.04
2022-10-15T12:35:13.378Z,21.74
2022-10-15T12:37:39.659Z,21.85
2022-10-15T12:40:05.984Z,21.99
2022-10-15T12:42:32.346Z,22.04
2022-10-15T12:44:58.688Z,21.97
2022-10-15T12:47:25.339Z,21.79
2022-10-15T12:49:51.404Z,21.39
2022-10-15T12:52:17.725Z,21.34
2022-10-15T12:54:44.075Z,21.96
2022-10-15T12:57:10.391Z,22.21
2022-10-15T12:59:36.764Z,21.86
2022-10-15T13:02:03.113Z,21.75
2022-10-15T13:04:29.430Z,22.57
2022-10-15T13:06:55.789Z,23.01
2022-10-15T13:09:22.117Z,22.99
2022-10-15T13:11:48.542Z,22.79
2022-10-15T13:14:14.853Z,22.14
2022-10-15T13:16:41.188Z,21.94
2022-10-15T13:19:07.530Z,21.66
2022-10-15T13:21:33.848Z,21.63
2022-10-15T13:24:00.210Z,21.47
2022-10-15T13:26:26.561Z,21.35
2022-10-15T13:28:53.090Z,21.23
2022-10-15T13:31:19.242Z,21.40
2022-10-15T13:33:45.562Z,21.58
2022-10-15T13:36:11.890Z,21.67
2022-10-15T13:38:38.214Z,21.47
2022-10-15T13:41:04.570Z,21.40
2022-10-15T13:43:30.915Z,21.45
2022-10-15T13:45:57.246Z,21.53
2022-10-15T13:48:23.604Z,21.34
2022-10-15T13:50:49.945Z,21.35
2022-10-15T13:53:16.264Z,21.20
2022-10-15T13:55:42.641Z,20.95
2022-10-15T13:58:08.984Z,20.75
2022-10-15T14:00:35.385Z,20.65
2022-10-15T14:03:01.672Z,20.54
2022-10-15T14:05:27.990Z,20.47
2022-10-15T14:07:54.340Z,20.47
2022-10-15T14:10:20.686Z,20.45
2022-10-15T14:12:46.996Z,20.48
2022-10-15T14:15:13.358Z,20.43
2022-10-15T14:17:39.736Z,20.41
2022-10-15T14:20:26.230Z,20.48
2022-10-15T14:22:32.424Z,20.59
2022-10-15T14:24:58.762Z,20.60
2022-10-15T14:27:25.405Z,20.57
2022-10-15T14:29:51.450Z,20.49
2022-10-15T14:32:17.777Z,20.49
2022-10-15T14:34:44.127Z,20.46
2022-10-15T14:37:10.494Z,20.34
2022-10-15T14:39:36.845Z,20.39
2022-10-15T14:42:03.167Z,20.33
2022-10-15T14:44:29.546Z,20.09
2022-10-15T14:46:55.897Z,19.98
2022-10-15T14:49:22.233Z,20.01
2022-10-15T14:51:48.581Z,19.99
2022-10-15T14:54:14.902Z,20.03
2022-10-15T14:56:41.250Z,20.08
2022-10-15T14:59:07.605Z,20.20
2022-10-15T15:01:33.990Z,20.16
2022-10-15T15:04:00.292Z,20.13
2022-10-15T15:06:26.619Z,20.13
2022-10-15T15:08:52.965Z,20.19
2022-10-15T15:11:19.314Z,20.20
2022-10-15T15:13:45.629Z,20.06
2022-10-15T15:16:11.954Z,19.96
2022-10-15T15:18:38.309Z,19.75
2022-10-15T15:21:04.655Z,19.71
2022-10-15T15:23:30.991Z,19.80
2022-10-15T15:25:57.321Z,19.76
2022-10-15T15:28:23.726Z,19.76
2022-10-15T15:30:50.001Z,19.66
2022-10-15T15:33:16.348Z,19.44
2022-10-15T15:35:42.692Z,19.35
2022-10-15T15:38:09.030Z,19.32
2022-10-15T15:40:35.360Z,19.26
2022-10-15T15:43:01.704Z,19.09
2022-10-15T15:45:28.026Z,19.01
2022-10-15T15:47:54.349Z,18.94
2022-10-15T15:50:20.676Z,18.75
2022-10-15T15:52:47.010Z,18.67
2022-10-15T15:55:13.342Z,18.61
2022-10-15T15:57:39.662Z,18.65
2022-10-15T16:00:05.993Z,18.59
2022-10-15T16:02:32.347Z,18.50
2022-10-15T16:04:58.685Z,18.37
2022-10-15T16:07:28.347Z,18.26
2022-10-15T16:09:51.333Z,18.24
2022-10-15T16:12:17.709Z,18.21
2022-10-15T16:14:44.051Z,18.21
2022-10-15T16:17:10.385Z,18.18
2022-10-15T16:19:36.708Z,18.06
2022-10-15T16:22:03.024Z,18.06
2022-10-15T16:24:29.436Z,18.06
2022-10-15T16:26:55.755Z,17.99
2022-10-15T16:29:22.137Z,17.89
2022-10-15T16:31:48.475Z,17.81
2022-10-15T16:34:14.868Z,17.79
2022-10-15T16:36:41.242Z,17.85
2022-10-15T16:39:07.586Z,17.91
2022-10-15T16:41:33.951Z,17.87
2022-10-15T16:44:00.278Z,17.81
2022-10-15T16:46:26.664Z,17.72
2022-10-15T16:48:52.999Z,17.56
2022-10-15T16:51:19.363Z,17.60
2022-10-15T16:53:45.733Z,17.45
2022-10-15T16:56:12.091Z,17.36
2022-10-15T16:58:38.417Z,17.29
2022-10-15T17:01:04.742Z,17.29
2022-10-15T17:03:31.088Z,17.26
2022-10-15T17:05:57.423Z,17.23
2022-10-15T17:08:26.600Z,17.21
2022-10-15T17:10:50.094Z,17.23
2022-10-15T17:13:16.439Z,17.27
2022-10-15T17:15:42.798Z,17.22
2022-10-15T17:18:09.180Z,17.25
2022-10-15T17:20:35.505Z,17.29
2022-10-15T17:23:01.863Z,17.35
2022-10-15T17:25:28.184Z,17.39
2022-10-15T17:27:54.514Z,17.45
2022-10-15T17:30:20.874Z,17.48
2022-10-15T17:32:47.274Z,17.44
2022-10-15T17:35:13.611Z,17.35
2022-10-15T17:37:40.061Z,17.33
2022-10-15T17:40:06.370Z,17.32
2022-10-15T17:42:32.647Z,17.28
2022-10-15T17:44:58.965Z,17.26
2022-10-15T17:47:25.555Z,17.19
2022-10-15T17:49:51.622Z,17.15
2022-10-15T17:52:18.047Z,17.20
2022-10-15T17:54:44.386Z,17.24
2022-10-15T17:57:10.733Z,17.32
2022-10-15T17:59:37.054Z,17.30
2022-10-15T18:02:03.442Z,17.22
2022-10-15T18:04:29.764Z,17.14
2022-10-15T18:06:56.119Z,17.03
2022-10-15T18:09:22.435Z,17.03
2022-10-15T18:11:48.784Z,16.96
2022-10-15T18:14:15.143Z,16.95
2022-10-15T18:16:41.462Z,16.92
2022-10-15T18:19:07.998Z,16.95
2022-10-15T18:21:34.326Z,16.90
2022-10-15T18:24:00.675Z,16.82
2022-10-15T18:26:27.000Z,16.84
2022-10-15T18:28:53.463Z,16.75
2022-10-15T18:31:19.689Z,16.73
2022-10-15T18:33:46.005Z,16.68
2022-10-15T18:36:12.394Z,16.60
2022-10-15T18:38:38.741Z,16.53
2022-10-15T18:41:05.062Z,16.47
2022-10-15T18:43:31.387Z,16.43
2022-10-15T18:45:57.742Z,16.23
2022-10-15T18:48:24.067Z,16.16
2022-10-15T18:50:50.418Z,16.13
2022-10-15T18:53:16.751Z,16.06
2022-10-15T18:55:43.104Z,16.02
2022-10-15T18:58:09.445Z,16.02
2022-10-15T19:00:35.809Z,16.12
2022-10-15T19:03:02.156Z,16.14
2022-10-15T19:05:28.485Z,16.09
2022-10-15T19:07:54.814Z,16.12
2022-10-15T19:10:21.157Z,16.09
2022-10-15T19:12:47.479Z,16.11
2022-10-15T19:15:13.843Z,16.06
2022-10-15T19:17:40.171Z,16.00
2022-10-15T19:20:06.493Z,16.07
2022-10-15T19:22:32.862Z,16.08
2022-10-15T19:24:59.188Z,16.12
2022-10-15T19:27:25.764Z,16.12
2022-10-15T19:29:51.855Z,16.12
2022-10-15T19:32:18.192Z,16.14
2022-10-15T19:34:44.539Z,16.12
2022-10-15T19:37:10.897Z,16.02
2022-10-15T19:39:37.226Z,15.93
2022-10-15T19:42:03.558Z,15.82
2022-10-15T19:44:29.885Z,15.68
2022-10-15T19:46:56.289Z,15.62
2022-10-15T19:49:22.611Z,15.54
2022-10-15T19:51:48.951Z,15.52
2022-10-15T19:54:15.323Z,15.47
2022-10-15T19:56:41.613Z,15.49
2022-10-15T19:59:07.954Z,15.48
2022-10-15T20:01:34.354Z,15.55
2022-10-15T20:04:04.796Z,15.53
2022-10-15T20:06:26.985Z,15.42
2022-10-15T20:08:53.326Z,15.38
2022-10-15T20:11:19.686Z,15.40
2022-10-15T20:13:46.028Z,15.38
2022-10-15T20:16:12.373Z,15.36
2022-10-15T20:18:38.744Z,15.40
2022-10-15T20:21:05.090Z,15.52
2022-10-15T20:23:31.434Z,15.57
2022-10-15T20:25:57.768Z,15.53
2022-10-15T20:28:24.147Z,15.59
2022-10-15T20:30:50.524Z,15.51
2022-10-15T20:33:16.787Z,15.53
2022-10-15T20:35:43.133Z,15.53
2022-10-15T20:38:09.486Z,15.55
2022-10-15T20:40:35.841Z,15.64
2022-10-15T20:43:02.219Z,15.64
2022-10-15T20:45:28.563Z,15.54
2022-10-15T20:47:54.906Z,15.63
2022-10-15T20:50:21.234Z,15.60
2022-10-15T20:52:47.563Z,15.64
2022-10-15T20:55:13.895Z,15.66
2022-10-15T20:57:40.275Z,15.63
2022-10-15T21:00:06.594Z,15.65
2022-10-15T21:02:32.966Z,15.61
2022-10-15T21:04:59.292Z,15.67
2022-10-15T21:07:25.624Z,15.66
2022-10-15T21:09:51.946Z,15.64
2022-10-15T21:12:18.304Z,15.63
2022-10-15T21:14:44.642Z,15.59
2022-10-15T21:17:10.956Z,15.59
2022-10-15T21:19:37.336Z,15.60
2022-10-15T21:22:03.663Z,15.52
2022-10-15T21:24:30.004Z,15.48
2022-10-15T21:26:56.387Z,15.34
2022-10-15T21:29:22.707Z,15.27
2022-10-15T21:31:49.052Z,15.17
2022-10-15T21:34:15.436Z,15.16
2022-10-15T21:36:41.764Z,15.11
2022-10-15T21:39:08.128Z,14.90
2022-10-15T21:41:34.470Z,14.80
2022-10-15T21:44:00.809Z,14.74
2022-10-15T21:46:27.126Z,14.76
2022-10-15T21:48:53.486Z,14.84
2022-10-15T21:51:19.814Z,14.85
2022-10-15T21:53:46.151Z,14.89
2022-10-15T21:56:12.508Z,14.92
2022-10-15T21:58:38.855Z,14.95
2022-10-15T22:01:05.271Z,14.90
2022-10-15T22:03:31.558Z,14.86
2022-10-15T22:05:57.894Z,14.83
2022-10-15T22:08:24.286Z,14.84
2022-10-15T22:10:50.624Z,14.76
2022-10-15T22:13:16.948Z,14.79
2022-10-15T22:15:43.290Z,14.76
2022-10-15T22:18:09.636Z,14.70
2022-10-15T22:20:36.049Z,14.67
2022-10-15T22:23:02.341Z,14.63
2022-10-15T22:25:28.665Z,14.66
2022-10-15T22:27:55.049Z,14.61
2022-10-15T22:30:21.364Z,14.52
2022-10-15T22:32:47.710Z,14.52
2022-10-15T22:35:14.086Z,14.57
2022-10-15T22:37:40.431Z,14.63
2022-10-15T22:40:06.749Z,14.64
2022-10-15T22:42:33.129Z,14.62
2022-10-15T22:44:59.466Z,14.65
2022-10-15T22:47:25.820Z,14.44
2022-10-15T22:49:52.273Z,14.36
2022-10-15T22:52:18.519Z,14.36
2022-10-15T22:54:44.843Z,14.36
2022-10-15T22:57:11.196Z,14.32
2022-10-15T22:59:37.536Z,14.31
2022-10-15T23:02:03.928Z,14.30
2022-10-15T23:04:30.268Z,14.23
2022-10-15T23:06:56.612Z,14.22
2022-10-15T23:09:22.948Z,14.09
2022-10-15T23:11:49.279Z,13.89
2022-10-15T23:14:15.624Z,13.75
2022-10-15T23:16:41.998Z,13.57
2022-10-15T23:19:08.339Z,13.58
2022-10-15T23:21:34.662Z,13.51
2022-10-15T23:24:01.036Z,13.43
2022-10-15T23:26:30.393Z,13.46
2022-10-15T23:28:53.830Z,13.47
2022-10-15T23:31:20.044Z,13.49
2022-10-15T23:33:46.386Z,13.50
2022-10-15T23:36:12.708Z,13.48
2022-10-15T23:38:39.051Z,13.44
2022-10-15T23:41:05.375Z,13.28
2022-10-15T23:43:31.752Z,13.22
2022-10-15T23:45:58.098Z,13.29
2022-10-15T23:48:24.418Z,13.38
2022-10-15T23:50:50.782Z,13.38
2022-10-15T23:53:17.128Z,13.35
2022-10-15T23:55:43.469Z,13.17
2022-10-15T23:58:09.853Z,13.10
